sensor_id;sensor_type;location;lat;lon;timestamp;P1;durP1;ratioP1;P2;durP2;ratioP2
35488;SDS011;21602;55.670;37.578;2023-03-11T00:01:28;13.20;;;4.20;;
35488;SDS011;21602;55.670;37.578;2023-03-11T00:03:53;6.60;;;3.70;;
35488;SDS011;21602;55.670;37.578;2023-03-11T00:06:19;10.93;;;4.30;;
35488;SDS011;21602;55.670;37.578;2023-03-11T00:08:45;8.65;;;4.18;;
35488;SDS011;21602;55.670;37.578;2023-03-11T00:11:11;8.30;;;4.78;;
35488;SDS011;21602;55.670;37.578;2023-03-11T00:13:37;7.28;;;3.65;;
35488;SDS011;21602;55.670;37.578;2023-03-11T00:16:03;6.57;;;3.28;;
35488;SDS011;21602;55.670;37.578;2023-03-11T00:18:32;6.83;;;4.23;;
35488;SDS011;21602;55.670;37.578;2023-03-11T00:20:58;7.70;;;4.07;;
35488;SDS011;21602;55.670;37.578;2023-03-11T00:23:25;7.28;;;3.15;;
35488;SDS011;21602;55.670;37.578;2023-03-11T00:25:52;5.68;;;3.50;;
35488;SDS011;21602;55.670;37.578;2023-03-11T00:28:18;7.90;;;3.88;;
35488;SDS011;21602;55.670;37.578;2023-03-11T00:30:46;6.45;;;3.67;;
35488;SDS011;21602;55.670;37.578;2023-03-11T00:33:13;7.00;;;4.13;;
35488;SDS011;21602;55.670;37.578;2023-03-11T00:35:40;8.02;;;3.40;;
35488;SDS011;21602;55.670;37.578;2023-03-11T00:38:07;6.63;;;3.63;;
35488;SDS011;21602;55.670;37.578;2023-03-11T00:40:38;6.30;;;3.70;;
35488;SDS011;21602;55.670;37.578;2023-03-11T00:43:04;7.88;;;3.05;;
35488;SDS011;21602;55.670;37.578;2023-03-11T00:45:30;7.88;;;4.03;;
35488;SDS011;21602;55.670;37.578;2023-03-11T00:47:56;5.23;;;3.60;;
35488;SDS011;21602;55.670;37.578;2023-03-11T00:50:25;8.32;;;4.10;;
35488;SDS011;21602;55.670;37.578;2023-03-11T00:52:53;5.68;;;3.05;;
35488;SDS011;21602;55.670;37.578;2023-03-11T00:55:21;4.85;;;3.10;;
35488;SDS011;21602;55.670;37.578;2023-03-11T00:57:56;4.50;;;3.17;;
35488;SDS011;21602;55.670;37.578;2023-03-11T01:00:28;7.35;;;3.90;;
35488;SDS011;21602;55.670;37.578;2023-03-11T01:02:55;6.00;;;2.67;;
35488;SDS011;21602;55.670;37.578;2023-03-11T01:05:23;5.68;;;3.20;;
35488;SDS011;21602;55.670;37.578;2023-03-11T01:07:51;4.60;;;3.13;;
35488;SDS011;21602;55.670;37.578;2023-03-11T01:10:17;4.18;;;3.50;;
35488;SDS011;21602;55.670;37.578;2023-03-11T01:12:43;7.43;;;4.47;;
35488;SDS011;21602;55.670;37.578;2023-03-11T01:15:14;7.40;;;3.40;;
35488;SDS011;21602;55.670;37.578;2023-03-11T01:17:47;7.75;;;4.03;;
35488;SDS011;21602;55.670;37.578;2023-03-11T01:20:12;6.77;;;3.63;;
35488;SDS011;21602;55.670;37.578;2023-03-11T01:22:39;6.17;;;3.90;;
35488;SDS011;21602;55.670;37.578;2023-03-11T01:25:05;7.70;;;3.37;;
35488;SDS011;21602;55.670;37.578;2023-03-11T01:27:31;8.53;;;4.07;;
35488;SDS011;21602;55.670;37.578;2023-03-11T01:29:57;11.17;;;4.43;;
35488;SDS011;21602;55.670;37.578;2023-03-11T01:32:23;8.67;;;3.57;;
35488;SDS011;21602;55.670;37.578;2023-03-11T01:34:48;10.73;;;4.50;;
35488;SDS011;21602;55.670;37.578;2023-03-11T01:37:14;10.93;;;4.77;;
35488;SDS011;21602;55.670;37.578;2023-03-11T01:39:40;9.20;;;4.30;;
35488;SDS011;21602;55.670;37.578;2023-03-11T01:42:06;10.40;;;4.50;;
35488;SDS011;21602;55.670;37.578;2023-03-11T01:44:32;7.40;;;4.07;;
35488;SDS011;21602;55.670;37.578;2023-03-11T01:49:30;10.57;;;5.37;;
35488;SDS011;21602;55.670;37.578;2023-03-11T01:52:01;7.97;;;4.33;;
35488;SDS011;21602;55.670;37.578;2023-03-11T01:54:34;7.50;;;4.87;;
35488;SDS011;21602;55.670;37.578;2023-03-11T01:57:04;9.73;;;5.30;;
35488;SDS011;21602;55.670;37.578;2023-03-11T01:59:35;13.87;;;5.57;;
35488;SDS011;21602;55.670;37.578;2023-03-11T02:02:05;9.77;;;5.00;;
35488;SDS011;21602;55.670;37.578;2023-03-11T02:04:36;13.90;;;5.20;;
35488;SDS011;21602;55.670;37.578;2023-03-11T02:07:04;14.27;;;5.82;;
35488;SDS011;21602;55.670;37.578;2023-03-11T02:09:34;6.40;;;4.07;;
35488;SDS011;21602;55.670;37.578;2023-03-11T02:12:00;8.73;;;4.33;;
35488;SDS011;21602;55.670;37.578;2023-03-11T02:14:28;16.05;;;6.25;;
35488;SDS011;21602;55.670;37.578;2023-03-11T02:16:55;7.63;;;4.40;;
35488;SDS011;21602;55.670;37.578;2023-03-11T02:19:36;8.73;;;4.35;;
35488;SDS011;21602;55.670;37.578;2023-03-11T02:22:23;8.90;;;5.20;;
35488;SDS011;21602;55.670;37.578;2023-03-11T02:24:53;7.30;;;4.30;;
35488;SDS011;21602;55.670;37.578;2023-03-11T02:27:29;8.70;;;4.50;;
35488;SDS011;21602;55.670;37.578;2023-03-11T02:29:57;8.70;;;5.03;;
35488;SDS011;21602;55.670;37.578;2023-03-11T02:32:25;7.73;;;4.70;;
35488;SDS011;21602;55.670;37.578;2023-03-11T02:34:51;8.90;;;5.67;;
35488;SDS011;21602;55.670;37.578;2023-03-11T02:37:17;7.97;;;5.73;;
35488;SDS011;21602;55.670;37.578;2023-03-11T02:39:50;9.23;;;6.10;;
35488;SDS011;21602;55.670;37.578;2023-03-11T02:42:19;10.48;;;5.57;;
35488;SDS011;21602;55.670;37.578;2023-03-11T02:45:11;8.67;;;5.60;;
35488;SDS011;21602;55.670;37.578;2023-03-11T02:47:38;9.97;;;5.30;;
35488;SDS011;21602;55.670;37.578;2023-03-11T02:50:08;10.43;;;5.57;;
35488;SDS011;21602;55.670;37.578;2023-03-11T02:52:38;12.27;;;5.00;;
35488;SDS011;21602;55.670;37.578;2023-03-11T02:55:06;6.87;;;4.60;;
35488;SDS011;21602;55.670;37.578;2023-03-11T02:57:32;9.87;;;5.93;;
35488;SDS011;21602;55.670;37.578;2023-03-11T02:59:59;12.93;;;6.17;;
35488;SDS011;21602;55.670;37.578;2023-03-11T03:02:30;18.97;;;6.43;;
35488;SDS011;21602;55.670;37.578;2023-03-11T03:04:57;10.17;;;5.00;;
35488;SDS011;21602;55.670;37.578;2023-03-11T03:07:22;12.47;;;6.83;;
35488;SDS011;21602;55.670;37.578;2023-03-11T03:09:48;13.83;;;7.57;;
35488;SDS011;21602;55.670;37.578;2023-03-11T03:12:14;14.10;;;6.10;;
35488;SDS011;21602;55.670;37.578;2023-03-11T03:14:40;14.03;;;6.63;;
35488;SDS011;21602;55.670;37.578;2023-03-11T03:17:06;11.43;;;6.70;;
35488;SDS011;21602;55.670;37.578;2023-03-11T03:19:32;16.43;;;7.57;;
35488;SDS011;21602;55.670;37.578;2023-03-11T03:21:58;12.87;;;7.93;;
35488;SDS011;21602;55.670;37.578;2023-03-11T03:24:23;16.50;;;7.93;;
35488;SDS011;21602;55.670;37.578;2023-03-11T03:26:49;20.33;;;7.87;;
35488;SDS011;21602;55.670;37.578;2023-03-11T03:29:16;15.10;;;8.00;;
35488;SDS011;21602;55.670;37.578;2023-03-11T03:31:43;18.43;;;7.50;;
35488;SDS011;21602;55.670;37.578;2023-03-11T03:34:09;14.93;;;9.40;;
35488;SDS011;21602;55.670;37.578;2023-03-11T03:36:35;20.43;;;9.57;;
35488;SDS011;21602;55.670;37.578;2023-03-11T03:39:03;14.30;;;8.20;;
35488;SDS011;21602;55.670;37.578;2023-03-11T03:41:33;24.47;;;10.07;;
35488;SDS011;21602;55.670;37.578;2023-03-11T03:43:59;18.00;;;8.80;;
35488;SDS011;21602;55.670;37.578;2023-03-11T03:46:27;20.13;;;9.97;;
35488;SDS011;21602;55.670;37.578;2023-03-11T03:48:56;22.70;;;10.75;;
35488;SDS011;21602;55.670;37.578;2023-03-11T03:51:22;19.97;;;9.07;;
35488;SDS011;21602;55.670;37.578;2023-03-11T03:54:06;15.00;;;9.77;;
35488;SDS011;21602;55.670;37.578;2023-03-11T03:56:33;17.70;;;8.93;;
35488;SDS011;21602;55.670;37.578;2023-03-11T03:59:00;22.73;;;9.33;;
35488;SDS011;21602;55.670;37.578;2023-03-11T04:01:32;16.47;;;10.30;;
35488;SDS011;21602;55.670;37.578;2023-03-11T04:03:58;18.17;;;9.57;;
35488;SDS011;21602;55.670;37.578;2023-03-11T04:06:25;20.43;;;10.10;;
35488;SDS011;21602;55.670;37.578;2023-03-11T04:11:32;14.53;;;9.07;;
35488;SDS011;21602;55.670;37.578;2023-03-11T04:14:00;23.30;;;10.20;;
35488;SDS011;21602;55.670;37.578;2023-03-11T04:16:27;19.07;;;9.60;;
35488;SDS011;21602;55.670;37.578;2023-03-11T04:19:00;22.27;;;10.63;;
35488;SDS011;21602;55.670;37.578;2023-03-11T04:21:26;24.57;;;10.13;;
35488;SDS011;21602;55.670;37.578;2023-03-11T04:23:53;17.50;;;11.20;;
35488;SDS011;21602;55.670;37.578;2023-03-11T04:26:23;20.73;;;11.50;;
35488;SDS011;21602;55.670;37.578;2023-03-11T04:28:49;24.00;;;11.30;;
35488;SDS011;21602;55.670;37.578;2023-03-11T04:31:15;19.97;;;10.43;;
35488;SDS011;21602;55.670;37.578;2023-03-11T04:33:42;20.63;;;10.70;;
35488;SDS011;21602;55.670;37.578;2023-03-11T04:36:10;18.17;;;10.97;;
35488;SDS011;21602;55.670;37.578;2023-03-11T04:38:37;23.15;;;10.82;;
35488;SDS011;21602;55.670;37.578;2023-03-11T04:41:09;18.37;;;10.30;;
35488;SDS011;21602;55.670;37.578;2023-03-11T04:43:38;16.83;;;10.75;;
35488;SDS011;21602;55.670;37.578;2023-03-11T04:46:03;19.73;;;9.97;;
35488;SDS011;21602;55.670;37.578;2023-03-11T04:48:30;18.30;;;10.43;;
35488;SDS011;21602;55.670;37.578;2023-03-11T04:50:56;17.03;;;9.07;;
35488;SDS011;21602;55.670;37.578;2023-03-11T04:53:22;18.87;;;10.53;;
35488;SDS011;21602;55.670;37.578;2023-03-11T04:55:49;15.87;;;10.30;;
35488;SDS011;21602;55.670;37.578;2023-03-11T04:58:15;16.40;;;9.17;;
35488;SDS011;21602;55.670;37.578;2023-03-11T05:00:42;28.87;;;10.47;;
35488;SDS011;21602;55.670;37.578;2023-03-11T05:03:11;21.50;;;12.17;;
35488;SDS011;21602;55.670;37.578;2023-03-11T05:05:38;15.83;;;9.83;;
35488;SDS011;21602;55.670;37.578;2023-03-11T05:08:04;18.73;;;9.10;;
35488;SDS011;21602;55.670;37.578;2023-03-11T05:10:31;16.33;;;9.67;;
35488;SDS011;21602;55.670;37.578;2023-03-11T05:12:58;17.33;;;10.43;;
35488;SDS011;21602;55.670;37.578;2023-03-11T05:15:30;14.33;;;8.77;;
35488;SDS011;21602;55.670;37.578;2023-03-11T05:17:59;17.93;;;9.60;;
35488;SDS011;21602;55.670;37.578;2023-03-11T05:20:25;24.47;;;10.43;;
35488;SDS011;21602;55.670;37.578;2023-03-11T05:22:51;17.50;;;9.63;;
35488;SDS011;21602;55.670;37.578;2023-03-11T05:25:17;32.70;;;10.33;;
35488;SDS011;21602;55.670;37.578;2023-03-11T05:27:43;14.97;;;9.60;;
35488;SDS011;21602;55.670;37.578;2023-03-11T05:30:10;16.83;;;7.93;;
35488;SDS011;21602;55.670;37.578;2023-03-11T05:32:38;15.20;;;8.13;;
35488;SDS011;21602;55.670;37.578;2023-03-11T05:35:05;18.07;;;10.13;;
35488;SDS011;21602;55.670;37.578;2023-03-11T05:37:32;20.63;;;9.43;;
35488;SDS011;21602;55.670;37.578;2023-03-11T05:42:30;15.47;;;8.47;;
35488;SDS011;21602;55.670;37.578;2023-03-11T05:44:56;15.27;;;8.90;;
35488;SDS011;21602;55.670;37.578;2023-03-11T05:47:24;13.57;;;9.00;;
35488;SDS011;21602;55.670;37.578;2023-03-11T05:49:50;15.93;;;9.63;;
35488;SDS011;21602;55.670;37.578;2023-03-11T05:52:17;12.70;;;9.17;;
35488;SDS011;21602;55.670;37.578;2023-03-11T05:54:44;15.00;;;8.73;;
35488;SDS011;21602;55.670;37.578;2023-03-11T05:57:10;13.43;;;9.43;;
35488;SDS011;21602;55.670;37.578;2023-03-11T05:59:36;12.80;;;9.07;;
35488;SDS011;21602;55.670;37.578;2023-03-11T06:02:03;14.67;;;9.43;;
35488;SDS011;21602;55.670;37.578;2023-03-11T06:04:29;15.13;;;10.10;;
35488;SDS011;21602;55.670;37.578;2023-03-11T06:06:57;14.13;;;8.65;;
35488;SDS011;21602;55.670;37.578;2023-03-11T06:09:28;16.50;;;9.17;;
35488;SDS011;21602;55.670;37.578;2023-03-11T06:11:54;15.30;;;9.60;;
35488;SDS011;21602;55.670;37.578;2023-03-11T06:14:23;13.67;;;7.83;;
35488;SDS011;21602;55.670;37.578;2023-03-11T06:16:50;13.47;;;8.17;;
35488;SDS011;21602;55.670;37.578;2023-03-11T06:21:48;14.80;;;8.47;;
35488;SDS011;21602;55.670;37.578;2023-03-11T06:24:15;12.87;;;8.10;;
35488;SDS011;21602;55.670;37.578;2023-03-11T06:26:42;10.87;;;8.00;;
35488;SDS011;21602;55.670;37.578;2023-03-11T06:29:12;13.95;;;8.63;;
35488;SDS011;21602;55.670;37.578;2023-03-11T06:31:40;13.43;;;8.10;;
35488;SDS011;21602;55.670;37.578;2023-03-11T06:34:09;15.53;;;7.57;;
35488;SDS011;21602;55.670;37.578;2023-03-11T06:36:36;16.53;;;9.03;;
35488;SDS011;21602;55.670;37.578;2023-03-11T06:39:02;16.10;;;8.20;;
35488;SDS011;21602;55.670;37.578;2023-03-11T06:41:31;19.50;;;9.70;;
35488;SDS011;21602;55.670;37.578;2023-03-11T06:43:59;11.10;;;6.83;;
35488;SDS011;21602;55.670;37.578;2023-03-11T06:46:25;13.33;;;7.07;;
35488;SDS011;21602;55.670;37.578;2023-03-11T06:48:53;13.57;;;6.57;;
35488;SDS011;21602;55.670;37.578;2023-03-11T06:51:20;11.33;;;7.47;;
35488;SDS011;21602;55.670;37.578;2023-03-11T06:53:50;14.33;;;7.50;;
35488;SDS011;21602;55.670;37.578;2023-03-11T06:56:19;10.88;;;6.95;;
35488;SDS011;21602;55.670;37.578;2023-03-11T06:58:52;8.70;;;5.50;;
35488;SDS011;21602;55.670;37.578;2023-03-11T07:01:22;10.17;;;6.60;;
35488;SDS011;21602;55.670;37.578;2023-03-11T07:03:51;12.70;;;7.10;;
35488;SDS011;21602;55.670;37.578;2023-03-11T07:06:23;9.70;;;6.57;;
35488;SDS011;21602;55.670;37.578;2023-03-11T07:08:53;31.60;;;14.93;;
35488;SDS011;21602;55.670;37.578;2023-03-11T07:11:20;9.77;;;6.10;;
35488;SDS011;21602;55.670;37.578;2023-03-11T07:13:54;12.57;;;6.17;;
35488;SDS011;21602;55.670;37.578;2023-03-11T07:16:23;18.87;;;9.73;;
35488;SDS011;21602;55.670;37.578;2023-03-11T07:18:55;14.73;;;5.83;;
35488;SDS011;21602;55.670;37.578;2023-03-11T07:21:23;6.70;;;4.80;;
35488;SDS011;21602;55.670;37.578;2023-03-11T07:23:53;20.13;;;9.73;;
35488;SDS011;21602;55.670;37.578;2023-03-11T07:26:20;9.17;;;5.50;;
35488;SDS011;21602;55.670;37.578;2023-03-11T07:28:46;21.27;;;11.20;;
35488;SDS011;21602;55.670;37.578;2023-03-11T07:31:15;8.68;;;4.95;;
35488;SDS011;21602;55.670;37.578;2023-03-11T07:33:42;8.27;;;5.43;;
35488;SDS011;21602;55.670;37.578;2023-03-11T07:36:12;7.10;;;4.70;;
35488;SDS011;21602;55.670;37.578;2023-03-11T07:38:40;8.17;;;5.20;;
35488;SDS011;21602;55.670;37.578;2023-03-11T07:41:07;7.85;;;5.05;;
35488;SDS011;21602;55.670;37.578;2023-03-11T07:43:35;6.50;;;4.10;;
35488;SDS011;21602;55.670;37.578;2023-03-11T07:46:03;9.38;;;5.25;;
35488;SDS011;21602;55.670;37.578;2023-03-11T07:48:49;7.60;;;5.28;;
35488;SDS011;21602;55.670;37.578;2023-03-11T07:51:17;10.02;;;5.88;;
35488;SDS011;21602;55.670;37.578;2023-03-11T07:53:44;7.72;;;4.90;;
35488;SDS011;21602;55.670;37.578;2023-03-11T07:56:11;7.97;;;4.53;;
35488;SDS011;21602;55.670;37.578;2023-03-11T07:58:38;9.03;;;4.90;;
35488;SDS011;21602;55.670;37.578;2023-03-11T08:01:09;5.53;;;3.33;;
35488;SDS011;21602;55.670;37.578;2023-03-11T08:03:37;7.50;;;4.83;;
35488;SDS011;21602;55.670;37.578;2023-03-11T08:06:38;10.30;;;5.87;;
35488;SDS011;21602;55.670;37.578;2023-03-11T08:08:58;10.77;;;6.13;;
35488;SDS011;21602;55.670;37.578;2023-03-11T08:11:28;8.07;;;6.03;;
35488;SDS011;21602;55.670;37.578;2023-03-11T08:13:54;10.03;;;5.23;;
35488;SDS011;21602;55.670;37.578;2023-03-11T08:16:22;8.20;;;5.67;;
35488;SDS011;21602;55.670;37.578;2023-03-11T08:18:49;6.88;;;4.85;;
35488;SDS011;21602;55.670;37.578;2023-03-11T08:21:23;8.60;;;5.87;;
35488;SDS011;21602;55.670;37.578;2023-03-11T08:23:51;6.97;;;5.22;;
35488;SDS011;21602;55.670;37.578;2023-03-11T08:26:20;6.83;;;5.00;;
35488;SDS011;21602;55.670;37.578;2023-03-11T08:28:46;7.88;;;5.40;;
35488;SDS011;21602;55.670;37.578;2023-03-11T08:33:44;6.00;;;4.20;;
35488;SDS011;21602;55.670;37.578;2023-03-11T08:36:11;7.80;;;5.63;;
35488;SDS011;21602;55.670;37.578;2023-03-11T08:38:38;7.07;;;4.53;;
35488;SDS011;21602;55.670;37.578;2023-03-11T08:41:04;8.27;;;4.50;;
35488;SDS011;21602;55.670;37.578;2023-03-11T08:43:30;7.20;;;4.80;;
35488;SDS011;21602;55.670;37.578;2023-03-11T08:45:56;7.15;;;5.03;;
35488;SDS011;21602;55.670;37.578;2023-03-11T08:48:28;7.40;;;4.95;;
35488;SDS011;21602;55.670;37.578;2023-03-11T08:50:54;7.07;;;4.93;;
35488;SDS011;21602;55.670;37.578;2023-03-11T08:53:23;6.38;;;4.85;;
35488;SDS011;21602;55.670;37.578;2023-03-11T08:56:00;6.95;;;5.03;;
35488;SDS011;21602;55.670;37.578;2023-03-11T08:58:35;7.28;;;4.80;;
35488;SDS011;21602;55.670;37.578;2023-03-11T09:01:01;9.18;;;5.07;;
35488;SDS011;21602;55.670;37.578;2023-03-11T09:03:31;6.60;;;4.75;;
35488;SDS011;21602;55.670;37.578;2023-03-11T09:06:00;7.40;;;5.00;;
35488;SDS011;21602;55.670;37.578;2023-03-11T09:08:30;7.93;;;4.70;;
35488;SDS011;21602;55.670;37.578;2023-03-11T09:10:56;9.35;;;5.78;;
35488;SDS011;21602;55.670;37.578;2023-03-11T09:15:50;7.03;;;4.33;;
35488;SDS011;21602;55.670;37.578;2023-03-11T09:18:17;5.72;;;4.03;;
35488;SDS011;21602;55.670;37.578;2023-03-11T09:20:44;7.32;;;4.90;;
35488;SDS011;21602;55.670;37.578;2023-03-11T09:23:10;7.13;;;4.45;;
35488;SDS011;21602;55.670;37.578;2023-03-11T09:25:37;8.70;;;6.07;;
35488;SDS011;21602;55.670;37.578;2023-03-11T09:32:31;10.00;;;4.03;;
35488;SDS011;21602;55.670;37.578;2023-03-11T09:34:57;5.80;;;4.10;;
35488;SDS011;21602;55.670;37.578;2023-03-11T09:37:24;6.45;;;4.40;;
35488;SDS011;21602;55.670;37.578;2023-03-11T09:39:52;7.50;;;5.10;;
35488;SDS011;21602;55.670;37.578;2023-03-11T09:55:33;9.23;;;4.30;;
35488;SDS011;21602;55.670;37.578;2023-03-11T10:00:43;8.83;;;4.53;;
35488;SDS011;21602;55.670;37.578;2023-03-11T10:03:13;6.50;;;4.37;;
35488;SDS011;21602;55.670;37.578;2023-03-11T10:05:57;7.77;;;5.37;;
35488;SDS011;21602;55.670;37.578;2023-03-11T10:13:56;6.75;;;3.70;;
35488;SDS011;21602;55.670;37.578;2023-03-11T10:19:45;6.88;;;4.22;;
35488;SDS011;21602;55.670;37.578;2023-03-11T10:25:13;4.35;;;3.17;;
35488;SDS011;21602;55.670;37.578;2023-03-11T10:27:53;5.70;;;3.95;;
35488;SDS011;21602;55.670;37.578;2023-03-11T10:35:40;9.40;;;5.22;;
35488;SDS011;21602;55.670;37.578;2023-03-11T10:38:11;11.73;;;6.85;;
35488;SDS011;21602;55.670;37.578;2023-03-11T10:40:44;5.90;;;4.40;;
35488;SDS011;21602;55.670;37.578;2023-03-11T10:43:13;8.02;;;5.20;;
35488;SDS011;21602;55.670;37.578;2023-03-11T10:45:42;5.10;;;4.07;;
35488;SDS011;21602;55.670;37.578;2023-03-11T10:48:13;9.00;;;4.30;;
35488;SDS011;21602;55.670;37.578;2023-03-11T10:50:45;9.23;;;5.55;;
35488;SDS011;21602;55.670;37.578;2023-03-11T10:53:13;10.35;;;5.57;;
35488;SDS011;21602;55.670;37.578;2023-03-11T10:55:51;12.52;;;6.05;;
35488;SDS011;21602;55.670;37.578;2023-03-11T10:58:23;8.37;;;5.93;;
35488;SDS011;21602;55.670;37.578;2023-03-11T11:00:59;10.40;;;5.90;;
35488;SDS011;21602;55.670;37.578;2023-03-11T11:03:42;8.38;;;5.25;;
35488;SDS011;21602;55.670;37.578;2023-03-11T11:06:27;8.48;;;4.57;;
35488;SDS011;21602;55.670;37.578;2023-03-11T11:09:16;5.93;;;3.95;;
35488;SDS011;21602;55.670;37.578;2023-03-11T11:12:00;6.25;;;4.28;;
35488;SDS011;21602;55.670;37.578;2023-03-11T11:14:51;8.25;;;5.03;;
35488;SDS011;21602;55.670;37.578;2023-03-11T11:19:56;5.57;;;4.63;;
35488;SDS011;21602;55.670;37.578;2023-03-11T11:22:23;8.23;;;4.93;;
35488;SDS011;21602;55.670;37.578;2023-03-11T11:24:54;12.60;;;7.45;;
35488;SDS011;21602;55.670;37.578;2023-03-11T11:27:21;8.13;;;5.15;;
35488;SDS011;21602;55.670;37.578;2023-03-11T11:35:16;5.93;;;4.30;;
35488;SDS011;21602;55.670;37.578;2023-03-11T11:37:47;6.45;;;4.68;;
35488;SDS011;21602;55.670;37.578;2023-03-11T11:42:53;7.00;;;4.55;;
35488;SDS011;21602;55.670;37.578;2023-03-11T11:47:54;8.02;;;5.28;;
35488;SDS011;21602;55.670;37.578;2023-03-11T11:53:20;9.57;;;5.50;;
35488;SDS011;21602;55.670;37.578;2023-03-11T11:55:55;8.20;;;4.50;;
35488;SDS011;21602;55.670;37.578;2023-03-11T11:58:21;7.32;;;5.25;;
35488;SDS011;21602;55.670;37.578;2023-03-11T12:06:24;9.07;;;5.07;;
35488;SDS011;21602;55.670;37.578;2023-03-11T12:09:02;8.18;;;4.38;;
35488;SDS011;21602;55.670;37.578;2023-03-11T12:17:19;6.78;;;5.10;;
35488;SDS011;21602;55.670;37.578;2023-03-11T12:28:23;7.45;;;4.88;;
35488;SDS011;21602;55.670;37.578;2023-03-11T12:31:02;5.28;;;3.58;;
35488;SDS011;21602;55.670;37.578;2023-03-11T12:33:39;5.80;;;3.88;;
35488;SDS011;21602;55.670;37.578;2023-03-11T12:39:26;9.10;;;5.18;;
35488;SDS011;21602;55.670;37.578;2023-03-11T12:44:36;7.60;;;4.75;;
35488;SDS011;21602;55.670;37.578;2023-03-11T12:49:42;5.05;;;3.88;;
35488;SDS011;21602;55.670;37.578;2023-03-11T12:58:00;7.67;;;4.17;;
35488;SDS011;21602;55.670;37.578;2023-03-11T13:04:11;6.82;;;4.57;;
35488;SDS011;21602;55.670;37.578;2023-03-11T13:10:53;7.32;;;4.78;;
35488;SDS011;21602;55.670;37.578;2023-03-11T13:12:53;6.00;;;4.60;;
35488;SDS011;21602;55.670;37.578;2023-03-11T13:34:12;11.85;;;5.78;;
35488;SDS011;21602;55.670;37.578;2023-03-11T13:42:30;7.53;;;4.40;;
35488;SDS011;21602;55.670;37.578;2023-03-11T13:45:21;10.98;;;4.60;;
35488;SDS011;21602;55.670;37.578;2023-03-11T13:47:56;8.00;;;4.60;;
35488;SDS011;21602;55.670;37.578;2023-03-11T13:50:44;6.35;;;4.53;;
35488;SDS011;21602;55.670;37.578;2023-03-11T13:56:54;6.60;;;3.70;;
35488;SDS011;21602;55.670;37.578;2023-03-11T13:59:29;7.70;;;4.83;;
35488;SDS011;21602;55.670;37.578;2023-03-11T14:04:37;6.45;;;5.07;;
35488;SDS011;21602;55.670;37.578;2023-03-11T14:07:38;8.27;;;5.35;;
35488;SDS011;21602;55.670;37.578;2023-03-11T14:12:49;8.48;;;5.43;;
35488;SDS011;21602;55.670;37.578;2023-03-11T14:15:19;10.00;;;5.50;;
35488;SDS011;21602;55.670;37.578;2023-03-11T14:17:49;12.77;;;6.07;;
35488;SDS011;21602;55.670;37.578;2023-03-11T14:20:17;8.77;;;5.43;;
35488;SDS011;21602;55.670;37.578;2023-03-11T14:22:47;7.05;;;5.15;;
35488;SDS011;21602;55.670;37.578;2023-03-11T14:25:17;8.50;;;5.60;;
35488;SDS011;21602;55.670;37.578;2023-03-11T14:27:47;7.28;;;5.15;;
35488;SDS011;21602;55.670;37.578;2023-03-11T14:30:18;7.45;;;5.18;;
35488;SDS011;21602;55.670;37.578;2023-03-11T14:33:12;10.88;;;5.55;;
35488;SDS011;21602;55.670;37.578;2023-03-11T14:35:53;8.98;;;5.97;;
35488;SDS011;21602;55.670;37.578;2023-03-11T14:38:22;9.95;;;5.60;;
35488;SDS011;21602;55.670;37.578;2023-03-11T14:40:57;10.38;;;5.82;;
35488;SDS011;21602;55.670;37.578;2023-03-11T14:43:25;10.90;;;6.45;;
35488;SDS011;21602;55.670;37.578;2023-03-11T14:46:01;8.05;;;5.93;;
35488;SDS011;21602;55.670;37.578;2023-03-11T14:48:34;11.90;;;6.63;;
35488;SDS011;21602;55.670;37.578;2023-03-11T14:51:07;10.35;;;6.30;;
35488;SDS011;21602;55.670;37.578;2023-03-11T14:53:43;8.55;;;5.53;;
35488;SDS011;21602;55.670;37.578;2023-03-11T14:56:18;9.77;;;6.38;;
35488;SDS011;21602;55.670;37.578;2023-03-11T14:58:47;14.15;;;5.90;;
35488;SDS011;21602;55.670;37.578;2023-03-11T15:01:27;10.57;;;5.47;;
35488;SDS011;21602;55.670;37.578;2023-03-11T15:03:57;10.88;;;6.28;;
35488;SDS011;21602;55.670;37.578;2023-03-11T15:06:33;8.80;;;5.72;;
35488;SDS011;21602;55.670;37.578;2023-03-11T15:09:13;8.35;;;5.20;;
35488;SDS011;21602;55.670;37.578;2023-03-11T15:11:46;7.82;;;5.40;;
35488;SDS011;21602;55.670;37.578;2023-03-11T15:16:45;7.93;;;4.88;;
35488;SDS011;21602;55.670;37.578;2023-03-11T15:24:51;9.48;;;5.57;;
35488;SDS011;21602;55.670;37.578;2023-03-11T15:27:41;7.95;;;5.97;;
35488;SDS011;21602;55.670;37.578;2023-03-11T15:30:21;9.75;;;5.70;;
35488;SDS011;21602;55.670;37.578;2023-03-11T15:32:52;8.43;;;5.13;;
35488;SDS011;21602;55.670;37.578;2023-03-11T15:35:20;8.20;;;5.45;;
35488;SDS011;21602;55.670;37.578;2023-03-11T15:37:49;9.13;;;5.63;;
35488;SDS011;21602;55.670;37.578;2023-03-11T15:40:35;6.40;;;5.15;;
35488;SDS011;21602;55.670;37.578;2023-03-11T15:45:40;7.68;;;5.15;;
35488;SDS011;21602;55.670;37.578;2023-03-11T15:48:08;7.38;;;5.50;;
35488;SDS011;21602;55.670;37.578;2023-03-11T15:50:35;9.02;;;5.40;;
35488;SDS011;21602;55.670;37.578;2023-03-11T15:53:01;6.50;;;4.82;;
35488;SDS011;21602;55.670;37.578;2023-03-11T15:55:28;8.98;;;5.72;;
35488;SDS011;21602;55.670;37.578;2023-03-11T15:57:59;8.05;;;5.40;;
35488;SDS011;21602;55.670;37.578;2023-03-11T16:00:31;9.13;;;5.28;;
35488;SDS011;21602;55.670;37.578;2023-03-11T16:02:57;9.68;;;5.35;;
35488;SDS011;21602;55.670;37.578;2023-03-11T16:05:23;8.68;;;5.50;;
35488;SDS011;21602;55.670;37.578;2023-03-11T16:07:50;12.15;;;6.40;;
35488;SDS011;21602;55.670;37.578;2023-03-11T16:10:17;10.93;;;5.80;;
35488;SDS011;21602;55.670;37.578;2023-03-11T16:15:35;11.63;;;6.32;;
35488;SDS011;21602;55.670;37.578;2023-03-11T16:18:05;11.50;;;6.78;;
35488;SDS011;21602;55.670;37.578;2023-03-11T16:20:40;11.60;;;6.30;;
35488;SDS011;21602;55.670;37.578;2023-03-11T16:23:23;9.43;;;6.05;;
35488;SDS011;21602;55.670;37.578;2023-03-11T16:25:57;10.82;;;7.18;;
35488;SDS011;21602;55.670;37.578;2023-03-11T16:28:28;8.75;;;5.10;;
35488;SDS011;21602;55.670;37.578;2023-03-11T16:30:54;10.88;;;6.85;;
35488;SDS011;21602;55.670;37.578;2023-03-11T16:33:22;8.35;;;5.45;;
35488;SDS011;21602;55.670;37.578;2023-03-11T16:35:58;9.63;;;6.60;;
35488;SDS011;21602;55.670;37.578;2023-03-11T16:38:24;8.98;;;5.65;;
35488;SDS011;21602;55.670;37.578;2023-03-11T16:40:57;9.85;;;6.13;;
35488;SDS011;21602;55.670;37.578;2023-03-11T16:43:24;8.27;;;5.43;;
35488;SDS011;21602;55.670;37.578;2023-03-11T16:45:51;9.65;;;6.70;;
35488;SDS011;21602;55.670;37.578;2023-03-11T16:48:21;12.75;;;7.60;;
35488;SDS011;21602;55.670;37.578;2023-03-11T16:50:50;8.75;;;4.75;;
35488;SDS011;21602;55.670;37.578;2023-03-11T16:53:16;9.65;;;7.00;;
35488;SDS011;21602;55.670;37.578;2023-03-11T16:55:46;9.63;;;6.38;;
35488;SDS011;21602;55.670;37.578;2023-03-11T16:58:13;10.55;;;6.38;;
35488;SDS011;21602;55.670;37.578;2023-03-11T17:00:40;8.75;;;6.22;;
35488;SDS011;21602;55.670;37.578;2023-03-11T17:03:15;9.48;;;6.13;;
35488;SDS011;21602;55.670;37.578;2023-03-11T17:05:43;9.70;;;5.93;;
35488;SDS011;21602;55.670;37.578;2023-03-11T17:08:16;11.27;;;6.40;;
35488;SDS011;21602;55.670;37.578;2023-03-11T17:10:43;8.18;;;5.90;;
35488;SDS011;21602;55.670;37.578;2023-03-11T17:13:11;8.85;;;5.85;;
35488;SDS011;21602;55.670;37.578;2023-03-11T17:15:38;9.55;;;6.10;;
35488;SDS011;21602;55.670;37.578;2023-03-11T17:18:06;9.18;;;5.95;;
35488;SDS011;21602;55.670;37.578;2023-03-11T17:20:32;9.13;;;5.68;;